Hauptseite
METAR-TAF:

METAR-TAF

Flughäfen :

Hamadan, Iran

Breite: 34-52-05N, Länge: 048-33-08E, Höhe: 1757 m

Beobachtung

Neuester Wetterbericht von vor 8 Stunden und 44 Minuten, um 12:00 UTC
Wind 16 kt aus Südwest, Böen bis zu 27 kt
Temperatur 16°C
Luftfeuchtigkeit 20%
Luftdruck 1013 hPa
Sichtweite 10 km oder mehr
keine Wolken unter 1500 m und keine Kumulonimbus oder Gewitterwolken

METAR: OIHH 011200Z 23016G27KT CAVOK 16/M07 Q1013

Zeit: 00:14 (20:44 UTC)


TAF: fehlend

Wetterbeobachtungen und Prognosen von mehr als 4000 Flughäfen (METAR und TAF Bericht).

Die verfügbaren Stationen werden durch gelbe und rote Markierungen auf der Karte dargestellt.

Führen Sie die Maus auf sie, um den Namen der Station zu sehen.

Darauf klicken, um die Beobachtung von Wetterbeobachtungen und Prognosen zu sehen.

Um die Karte zu ändern : klicken Sie auf den grünen Tasten mit einem schwarzen Kreuz Zum Vergrößern, auf den grünen Button mit einem Gedankenstrich zu verkleinern, oder auf die grünen Pfeile für benachbarte Karten.


METAR-TAF: